sensor_id;sensor_type;location;lat;lon;timestamp;P1;durP1;ratioP1;P2;durP2;ratioP2
67146;SDS011;54061;52.036;5.558;2022-08-01T04:02:14;7.82;;;4.97;;
67146;SDS011;54061;52.036;5.558;2022-08-01T04:04:40;9.07;;;5.63;;
67146;SDS011;54061;52.036;5.558;2022-08-01T04:07:20;11.82;;;6.15;;
67146;SDS011;54061;52.036;5.558;2022-08-01T04:09:50;13.50;;;5.40;;
67146;SDS011;54061;52.036;5.558;2022-08-01T04:12:16;10.55;;;5.75;;
67146;SDS011;54061;52.036;5.558;2022-08-01T04:14:42;9.73;;;5.85;;
67146;SDS011;54061;52.036;5.558;2022-08-01T04:17:08;7.57;;;4.72;;
67146;SDS011;54061;52.036;5.558;2022-08-01T04:19:33;10.30;;;5.55;;
67146;SDS011;54061;52.036;5.558;2022-08-01T04:21:59;9.93;;;5.72;;
67146;SDS011;54061;52.036;5.558;2022-08-01T04:24:25;8.40;;;4.80;;
67146;SDS011;54061;52.036;5.558;2022-08-01T04:26:54;9.63;;;5.63;;
67146;SDS011;54061;52.036;5.558;2022-08-01T04:29:22;9.77;;;5.80;;
67146;SDS011;54061;52.036;5.558;2022-08-01T04:31:50;7.70;;;4.93;;
67146;SDS011;54061;52.036;5.558;2022-08-01T04:34:17;9.15;;;5.57;;
67146;SDS011;54061;52.036;5.558;2022-08-01T04:36:47;10.85;;;6.10;;
67146;SDS011;54061;52.036;5.558;2022-08-01T04:39:14;11.30;;;5.90;;
67146;SDS011;54061;52.036;5.558;2022-08-01T04:41:41;13.10;;;5.93;;
67146;SDS011;54061;52.036;5.558;2022-08-01T04:44:08;10.57;;;6.25;;
67146;SDS011;54061;52.036;5.558;2022-08-01T04:46:33;9.82;;;5.97;;
67146;SDS011;54061;52.036;5.558;2022-08-01T04:49:02;8.57;;;5.47;;
67146;SDS011;54061;52.036;5.558;2022-08-01T04:51:31;9.18;;;5.63;;
67146;SDS011;54061;52.036;5.558;2022-08-01T04:53:56;8.57;;;5.63;;
67146;SDS011;54061;52.036;5.558;2022-08-01T04:56:23;9.20;;;5.32;;
67146;SDS011;54061;52.036;5.558;2022-08-01T04:58:49;7.47;;;5.40;;
67146;SDS011;54061;52.036;5.558;2022-08-01T05:01:34;9.02;;;5.68;;
67146;SDS011;54061;52.036;5.558;2022-08-01T05:04:00;9.68;;;5.60;;
67146;SDS011;54061;52.036;5.558;2022-08-01T05:06:25;10.52;;;5.05;;
67146;SDS011;54061;52.036;5.558;2022-08-01T05:08:51;9.55;;;5.45;;
67146;SDS011;54061;52.036;5.558;2022-08-01T05:11:16;8.52;;;5.57;;
67146;SDS011;54061;52.036;5.558;2022-08-01T05:13:42;9.48;;;4.68;;
67146;SDS011;54061;52.036;5.558;2022-08-01T05:16:07;6.95;;;4.40;;
67146;SDS011;54061;52.036;5.558;2022-08-01T05:18:33;6.35;;;3.45;;
67146;SDS011;54061;52.036;5.558;2022-08-01T05:20:58;4.95;;;2.47;;
67146;SDS011;54061;52.036;5.558;2022-08-01T05:23:24;4.93;;;2.92;;
67146;SDS011;54061;52.036;5.558;2022-08-01T05:25:49;3.75;;;2.22;;
67146;SDS011;54061;52.036;5.558;2022-08-01T05:28:15;7.28;;;1.95;;
67146;SDS011;54061;52.036;5.558;2022-08-01T05:30:40;2.30;;;1.70;;
67146;SDS011;54061;52.036;5.558;2022-08-01T05:33:06;3.22;;;1.60;;
67146;SDS011;54061;52.036;5.558;2022-08-01T05:35:31;2.03;;;1.42;;
67146;SDS011;54061;52.036;5.558;2022-08-01T05:37:57;3.05;;;1.45;;
67146;SDS011;54061;52.036;5.558;2022-08-01T05:40:22;2.72;;;1.55;;
67146;SDS011;54061;52.036;5.558;2022-08-01T05:42:48;2.03;;;1.60;;
67146;SDS011;54061;52.036;5.558;2022-08-01T05:45:13;1.98;;;1.52;;
67146;SDS011;54061;52.036;5.558;2022-08-01T05:47:39;2.40;;;1.40;;
67146;SDS011;54061;52.036;5.558;2022-08-01T05:50:04;2.58;;;1.40;;
67146;SDS011;54061;52.036;5.558;2022-08-01T05:52:30;1.63;;;1.20;;
67146;SDS011;54061;52.036;5.558;2022-08-01T05:54:56;1.73;;;1.40;;
67146;SDS011;54061;52.036;5.558;2022-08-01T05:57:21;2.80;;;1.55;;
67146;SDS011;54061;52.036;5.558;2022-08-01T05:59:47;9.35;;;1.70;;
67146;SDS011;54061;52.036;5.558;2022-08-01T06:02:12;1.90;;;1.50;;
67146;SDS011;54061;52.036;5.558;2022-08-01T06:04:38;5.90;;;1.45;;
67146;SDS011;54061;52.036;5.558;2022-08-01T06:07:03;1.35;;;1.25;;
67146;SDS011;54061;52.036;5.558;2022-08-01T06:09:29;1.55;;;1.10;;
67146;SDS011;54061;52.036;5.558;2022-08-01T06:11:55;2.17;;;1.30;;
67146;SDS011;54061;52.036;5.558;2022-08-01T06:14:21;2.53;;;1.40;;
67146;SDS011;54061;52.036;5.558;2022-08-01T06:16:46;2.63;;;1.30;;
67146;SDS011;54061;52.036;5.558;2022-08-01T06:19:12;3.85;;;1.38;;
67146;SDS011;54061;52.036;5.558;2022-08-01T06:21:37;2.50;;;1.30;;
67146;SDS011;54061;52.036;5.558;2022-08-01T06:24:03;1.63;;;1.20;;
67146;SDS011;54061;52.036;5.558;2022-08-01T06:26:29;1.90;;;1.30;;
67146;SDS011;54061;52.036;5.558;2022-08-01T06:28:56;2.58;;;1.17;;
67146;SDS011;54061;52.036;5.558;2022-08-01T06:31:21;1.48;;;1.20;;
67146;SDS011;54061;52.036;5.558;2022-08-01T06:33:47;1.88;;;1.27;;
67146;SDS011;54061;52.036;5.558;2022-08-01T06:36:12;3.58;;;1.52;;
67146;SDS011;54061;52.036;5.558;2022-08-01T06:38:38;2.72;;;1.65;;
67146;SDS011;54061;52.036;5.558;2022-08-01T06:41:03;2.58;;;1.70;;
67146;SDS011;54061;52.036;5.558;2022-08-01T06:43:29;4.40;;;1.65;;
67146;SDS011;54061;52.036;5.558;2022-08-01T06:45:56;3.42;;;1.58;;
67146;SDS011;54061;52.036;5.558;2022-08-01T06:48:21;3.42;;;1.80;;
67146;SDS011;54061;52.036;5.558;2022-08-01T06:50:47;3.60;;;1.75;;
67146;SDS011;54061;52.036;5.558;2022-08-01T06:53:13;4.55;;;1.60;;
67146;SDS011;54061;52.036;5.558;2022-08-01T06:55:38;2.03;;;1.65;;
67146;SDS011;54061;52.036;5.558;2022-08-01T06:58:04;1.70;;;1.60;;
67146;SDS011;54061;52.036;5.558;2022-08-01T07:00:29;2.00;;;1.60;;
67146;SDS011;54061;52.036;5.558;2022-08-01T07:02:56;2.80;;;2.00;;
67146;SDS011;54061;52.036;5.558;2022-08-01T07:05:23;2.63;;;1.92;;
67146;SDS011;54061;52.036;5.558;2022-08-01T07:07:49;2.50;;;1.95;;
67146;SDS011;54061;52.036;5.558;2022-08-01T07:10:14;3.83;;;2.10;;
67146;SDS011;54061;52.036;5.558;2022-08-01T07:12:40;2.90;;;2.13;;
67146;SDS011;54061;52.036;5.558;2022-08-01T07:15:06;3.60;;;2.50;;
67146;SDS011;54061;52.036;5.558;2022-08-01T07:17:36;4.38;;;2.30;;
67146;SDS011;54061;52.036;5.558;2022-08-01T07:20:02;2.72;;;2.35;;
67146;SDS011;54061;52.036;5.558;2022-08-01T07:22:28;3.83;;;2.17;;
67146;SDS011;54061;52.036;5.558;2022-08-01T07:24:54;3.88;;;2.35;;
67146;SDS011;54061;52.036;5.558;2022-08-01T07:27:19;5.90;;;2.38;;
67146;SDS011;54061;52.036;5.558;2022-08-01T07:29:45;3.92;;;2.63;;
67146;SDS011;54061;52.036;5.558;2022-08-01T07:32:10;4.85;;;2.50;;
67146;SDS011;54061;52.036;5.558;2022-08-01T07:34:36;5.15;;;2.40;;
67146;SDS011;54061;52.036;5.558;2022-08-01T07:37:01;5.93;;;2.50;;
67146;SDS011;54061;52.036;5.558;2022-08-01T07:39:27;4.25;;;2.30;;
67146;SDS011;54061;52.036;5.558;2022-08-01T07:41:52;6.28;;;2.40;;
67146;SDS011;54061;52.036;5.558;2022-08-01T07:44:18;4.82;;;1.75;;
67146;SDS011;54061;52.036;5.558;2022-08-01T07:46:43;3.15;;;2.45;;
67146;SDS011;54061;52.036;5.558;2022-08-01T07:49:09;5.20;;;2.28;;
67146;SDS011;54061;52.036;5.558;2022-08-01T07:51:34;3.70;;;2.35;;
67146;SDS011;54061;52.036;5.558;2022-08-01T07:54:00;2.70;;;2.00;;
67146;SDS011;54061;52.036;5.558;2022-08-01T07:56:25;3.80;;;2.03;;
67146;SDS011;54061;52.036;5.558;2022-08-01T07:58:51;2.60;;;2.00;;
67146;SDS011;54061;52.036;5.558;2022-08-01T08:01:17;7.07;;;2.30;;
67146;SDS011;54061;52.036;5.558;2022-08-01T08:03:45;2.90;;;2.25;;
67146;SDS011;54061;52.036;5.558;2022-08-01T08:06:11;2.53;;;1.73;;
67146;SDS011;54061;52.036;5.558;2022-08-01T08:08:37;5.78;;;2.10;;
67146;SDS011;54061;52.036;5.558;2022-08-01T08:11:03;3.63;;;2.20;;
67146;SDS011;54061;52.036;5.558;2022-08-01T08:13:28;3.35;;;2.22;;
67146;SDS011;54061;52.036;5.558;2022-08-01T08:15:53;2.47;;;2.00;;
67146;SDS011;54061;52.036;5.558;2022-08-01T08:18:19;9.27;;;2.60;;
67146;SDS011;54061;52.036;5.558;2022-08-01T08:20:45;2.78;;;1.98;;
67146;SDS011;54061;52.036;5.558;2022-08-01T08:23:10;2.10;;;1.90;;
67146;SDS011;54061;52.036;5.558;2022-08-01T08:25:54;6.03;;;2.17;;
67146;SDS011;54061;52.036;5.558;2022-08-01T08:28:20;3.70;;;2.22;;
67146;SDS011;54061;52.036;5.558;2022-08-01T08:30:45;5.00;;;2.20;;
67146;SDS011;54061;52.036;5.558;2022-08-01T08:33:11;6.20;;;2.15;;
67146;SDS011;54061;52.036;5.558;2022-08-01T08:35:38;9.93;;;2.83;;
67146;SDS011;54061;52.036;5.558;2022-08-01T08:38:05;7.82;;;2.50;;
67146;SDS011;54061;52.036;5.558;2022-08-01T08:40:31;7.53;;;3.28;;
67146;SDS011;54061;52.036;5.558;2022-08-01T08:43:00;7.93;;;2.83;;
67146;SDS011;54061;52.036;5.558;2022-08-01T08:45:28;8.65;;;2.70;;
67146;SDS011;54061;52.036;5.558;2022-08-01T08:47:55;7.88;;;2.95;;
67146;SDS011;54061;52.036;5.558;2022-08-01T08:50:21;9.75;;;3.00;;
67146;SDS011;54061;52.036;5.558;2022-08-01T08:52:48;7.95;;;3.33;;
67146;SDS011;54061;52.036;5.558;2022-08-01T08:55:15;8.60;;;2.90;;
67146;SDS011;54061;52.036;5.558;2022-08-01T08:57:43;9.13;;;2.85;;
67146;SDS011;54061;52.036;5.558;2022-08-01T09:00:09;10.90;;;3.15;;
67146;SDS011;54061;52.036;5.558;2022-08-01T09:02:40;13.77;;;3.63;;
67146;SDS011;54061;52.036;5.558;2022-08-01T09:05:09;9.93;;;3.53;;
67146;SDS011;54061;52.036;5.558;2022-08-01T09:07:36;15.63;;;3.20;;
67146;SDS011;54061;52.036;5.558;2022-08-01T09:10:01;9.93;;;3.20;;
67146;SDS011;54061;52.036;5.558;2022-08-01T09:12:28;7.95;;;2.90;;
67146;SDS011;54061;52.036;5.558;2022-08-01T09:14:54;12.88;;;3.28;;
67146;SDS011;54061;52.036;5.558;2022-08-01T09:17:19;21.73;;;3.90;;
67146;SDS011;54061;52.036;5.558;2022-08-01T09:19:46;14.43;;;3.33;;
67146;SDS011;54061;52.036;5.558;2022-08-01T09:22:18;14.95;;;3.92;;
67146;SDS011;54061;52.036;5.558;2022-08-01T09:24:57;16.27;;;3.22;;
67146;SDS011;54061;52.036;5.558;2022-08-01T09:27:29;19.80;;;3.13;;
67146;SDS011;54061;52.036;5.558;2022-08-01T09:29:55;15.07;;;3.53;;
67146;SDS011;54061;52.036;5.558;2022-08-01T09:35:26;19.75;;;3.88;;
67146;SDS011;54061;52.036;5.558;2022-08-01T09:38:10;13.50;;;3.15;;
67146;SDS011;54061;52.036;5.558;2022-08-01T09:40:47;15.50;;;3.13;;
67146;SDS011;54061;52.036;5.558;2022-08-01T09:43:15;14.90;;;2.92;;
67146;SDS011;54061;52.036;5.558;2022-08-01T09:45:41;11.05;;;3.13;;
67146;SDS011;54061;52.036;5.558;2022-08-01T09:48:07;21.38;;;3.78;;
67146;SDS011;54061;52.036;5.558;2022-08-01T09:50:43;12.15;;;2.90;;
67146;SDS011;54061;52.036;5.558;2022-08-01T09:53:10;15.70;;;3.42;;
67146;SDS011;54061;52.036;5.558;2022-08-01T09:55:37;20.98;;;4.00;;
67146;SDS011;54061;52.036;5.558;2022-08-01T09:58:03;11.40;;;3.05;;
67146;SDS011;54061;52.036;5.558;2022-08-01T10:00:30;17.83;;;3.85;;
67146;SDS011;54061;52.036;5.558;2022-08-01T10:02:57;17.83;;;3.42;;
67146;SDS011;54061;52.036;5.558;2022-08-01T10:05:32;11.52;;;3.28;;
67146;SDS011;54061;52.036;5.558;2022-08-01T10:08:01;14.18;;;2.75;;
67146;SDS011;54061;52.036;5.558;2022-08-01T10:10:28;9.55;;;3.05;;
67146;SDS011;54061;52.036;5.558;2022-08-01T10:12:55;12.90;;;3.03;;
67146;SDS011;54061;52.036;5.558;2022-08-01T10:15:22;7.60;;;2.40;;
67146;SDS011;54061;52.036;5.558;2022-08-01T10:17:53;8.38;;;2.47;;
67146;SDS011;54061;52.036;5.558;2022-08-01T10:20:21;10.32;;;2.28;;
67146;SDS011;54061;52.036;5.558;2022-08-01T10:22:49;8.82;;;2.30;;
67146;SDS011;54061;52.036;5.558;2022-08-01T10:25:18;7.13;;;1.92;;
67146;SDS011;54061;52.036;5.558;2022-08-01T10:27:45;7.43;;;1.95;;
67146;SDS011;54061;52.036;5.558;2022-08-01T10:30:14;8.57;;;2.30;;
67146;SDS011;54061;52.036;5.558;2022-08-01T10:32:40;15.65;;;2.58;;
67146;SDS011;54061;52.036;5.558;2022-08-01T10:35:09;15.98;;;2.42;;
67146;SDS011;54061;52.036;5.558;2022-08-01T10:37:40;11.15;;;2.40;;
67146;SDS011;54061;52.036;5.558;2022-08-01T10:40:07;11.05;;;2.30;;
67146;SDS011;54061;52.036;5.558;2022-08-01T10:42:34;11.48;;;2.85;;
67146;SDS011;54061;52.036;5.558;2022-08-01T10:45:00;9.10;;;2.38;;
67146;SDS011;54061;52.036;5.558;2022-08-01T10:47:36;8.15;;;2.28;;
67146;SDS011;54061;52.036;5.558;2022-08-01T10:50:11;11.48;;;2.22;;
67146;SDS011;54061;52.036;5.558;2022-08-01T10:52:47;6.40;;;1.75;;
67146;SDS011;54061;52.036;5.558;2022-08-01T10:55:51;7.65;;;1.90;;
67146;SDS011;54061;52.036;5.558;2022-08-01T10:58:26;7.57;;;2.00;;
67146;SDS011;54061;52.036;5.558;2022-08-01T11:01:12;9.45;;;2.10;;
67146;SDS011;54061;52.036;5.558;2022-08-01T11:03:38;11.95;;;2.10;;
67146;SDS011;54061;52.036;5.558;2022-08-01T11:06:03;8.68;;;1.92;;
67146;SDS011;54061;52.036;5.558;2022-08-01T11:08:29;10.68;;;2.28;;
67146;SDS011;54061;52.036;5.558;2022-08-01T11:11:01;13.40;;;2.40;;
67146;SDS011;54061;52.036;5.558;2022-08-01T11:16:30;12.95;;;2.10;;
67146;SDS011;54061;52.036;5.558;2022-08-01T11:18:57;8.15;;;1.92;;
67146;SDS011;54061;52.036;5.558;2022-08-01T11:21:56;11.95;;;2.20;;
67146;SDS011;54061;52.036;5.558;2022-08-01T11:27:30;12.02;;;2.17;;
67146;SDS011;54061;52.036;5.558;2022-08-01T11:30:42;9.60;;;1.70;;
67146;SDS011;54061;52.036;5.558;2022-08-01T11:32:47;9.60;;;2.20;;
67146;SDS011;54061;52.036;5.558;2022-08-01T11:35:14;5.45;;;1.50;;
67146;SDS011;54061;52.036;5.558;2022-08-01T11:37:40;9.25;;;1.90;;
67146;SDS011;54061;52.036;5.558;2022-08-01T11:42:45;5.80;;;1.83;;
67146;SDS011;54061;52.036;5.558;2022-08-01T11:45:11;10.20;;;2.03;;
67146;SDS011;54061;52.036;5.558;2022-08-01T11:47:47;9.77;;;1.83;;
67146;SDS011;54061;52.036;5.558;2022-08-01T11:50:29;10.43;;;2.00;;
67146;SDS011;54061;52.036;5.558;2022-08-01T11:52:59;10.05;;;1.88;;
67146;SDS011;54061;52.036;5.558;2022-08-01T11:55:30;7.00;;;1.50;;
67146;SDS011;54061;52.036;5.558;2022-08-01T11:58:06;9.35;;;1.35;;
67146;SDS011;54061;52.036;5.558;2022-08-01T12:00:32;10.07;;;1.70;;
67146;SDS011;54061;52.036;5.558;2022-08-01T12:03:00;5.97;;;1.58;;
67146;SDS011;54061;52.036;5.558;2022-08-01T12:05:28;10.38;;;2.03;;
67146;SDS011;54061;52.036;5.558;2022-08-01T12:07:55;12.25;;;2.03;;
67146;SDS011;54061;52.036;5.558;2022-08-01T12:10:25;6.15;;;2.13;;
67146;SDS011;54061;52.036;5.558;2022-08-01T12:13:01;9.60;;;1.98;;
67146;SDS011;54061;52.036;5.558;2022-08-01T12:15:29;13.60;;;2.05;;
67146;SDS011;54061;52.036;5.558;2022-08-01T12:18:00;12.70;;;2.13;;
67146;SDS011;54061;52.036;5.558;2022-08-01T12:20:31;7.57;;;1.60;;
67146;SDS011;54061;52.036;5.558;2022-08-01T12:23:03;8.48;;;1.67;;
67146;SDS011;54061;52.036;5.558;2022-08-01T12:25:34;10.57;;;1.58;;
67146;SDS011;54061;52.036;5.558;2022-08-01T12:28:00;6.10;;;1.80;;
67146;SDS011;54061;52.036;5.558;2022-08-01T12:30:28;17.02;;;2.40;;
67146;SDS011;54061;52.036;5.558;2022-08-01T12:32:55;10.10;;;1.90;;
67146;SDS011;54061;52.036;5.558;2022-08-01T12:35:23;12.35;;;2.17;;
67146;SDS011;54061;52.036;5.558;2022-08-01T12:37:51;10.45;;;2.20;;
67146;SDS011;54061;52.036;5.558;2022-08-01T12:40:19;9.35;;;2.00;;
67146;SDS011;54061;52.036;5.558;2022-08-01T12:42:47;9.95;;;1.55;;
67146;SDS011;54061;52.036;5.558;2022-08-01T12:45:15;13.73;;;2.00;;
67146;SDS011;54061;52.036;5.558;2022-08-01T12:47:42;10.23;;;1.60;;
67146;SDS011;54061;52.036;5.558;2022-08-01T12:50:13;7.28;;;1.60;;
67146;SDS011;54061;52.036;5.558;2022-08-01T12:55:08;7.82;;;1.48;;
67146;SDS011;54061;52.036;5.558;2022-08-01T12:57:43;5.60;;;1.60;;
67146;SDS011;54061;52.036;5.558;2022-08-01T13:00:16;5.18;;;1.30;;
67146;SDS011;54061;52.036;5.558;2022-08-01T13:02:42;8.25;;;1.67;;
67146;SDS011;54061;52.036;5.558;2022-08-01T13:05:10;4.63;;;1.20;;
67146;SDS011;54061;52.036;5.558;2022-08-01T13:07:49;5.63;;;1.23;;
67146;SDS011;54061;52.036;5.558;2022-08-01T13:10:24;6.47;;;1.15;;
67146;SDS011;54061;52.036;5.558;2022-08-01T13:12:54;4.65;;;0.85;;
67146;SDS011;54061;52.036;5.558;2022-08-01T13:15:23;2.38;;;0.85;;
67146;SDS011;54061;52.036;5.558;2022-08-01T13:17:52;2.88;;;0.90;;
67146;SDS011;54061;52.036;5.558;2022-08-01T13:20:36;5.18;;;1.00;;
67146;SDS011;54061;52.036;5.558;2022-08-01T13:23:15;4.95;;;0.93;;
67146;SDS011;54061;52.036;5.558;2022-08-01T13:25:46;4.72;;;1.10;;
67146;SDS011;54061;52.036;5.558;2022-08-01T13:28:27;2.28;;;1.00;;
67146;SDS011;54061;52.036;5.558;2022-08-01T13:30:59;3.75;;;1.08;;
67146;SDS011;54061;52.036;5.558;2022-08-01T13:33:39;2.55;;;1.00;;
67146;SDS011;54061;52.036;5.558;2022-08-01T13:36:07;5.90;;;1.00;;
67146;SDS011;54061;52.036;5.558;2022-08-01T13:38:32;4.72;;;0.93;;
67146;SDS011;54061;52.036;5.558;2022-08-01T13:41:16;2.97;;;0.88;;
67146;SDS011;54061;52.036;5.558;2022-08-01T13:43:42;3.30;;;1.05;;
67146;SDS011;54061;52.036;5.558;2022-08-01T13:46:08;4.80;;;1.10;;
67146;SDS011;54061;52.036;5.558;2022-08-01T13:48:33;2.92;;;1.02;;
67146;SDS011;54061;52.036;5.558;2022-08-01T13:50:59;3.67;;;0.90;;
67146;SDS011;54061;52.036;5.558;2022-08-01T13:53:27;4.22;;;1.08;;
67146;SDS011;54061;52.036;5.558;2022-08-01T13:55:53;3.15;;;0.93;;
67146;SDS011;54061;52.036;5.558;2022-08-01T13:58:19;4.68;;;1.05;;
67146;SDS011;54061;52.036;5.558;2022-08-01T14:00:44;6.05;;;1.25;;
67146;SDS011;54061;52.036;5.558;2022-08-01T14:03:10;7.10;;;1.20;;
67146;SDS011;54061;52.036;5.558;2022-08-01T14:05:36;2.33;;;0.90;;
67146;SDS011;54061;52.036;5.558;2022-08-01T14:08:02;5.40;;;1.10;;
67146;SDS011;54061;52.036;5.558;2022-08-01T14:10:28;3.70;;;0.90;;
67146;SDS011;54061;52.036;5.558;2022-08-01T14:12:57;2.00;;;0.85;;
67146;SDS011;54061;52.036;5.558;2022-08-01T14:15:23;4.75;;;1.10;;
67146;SDS011;54061;52.036;5.558;2022-08-01T14:17:49;4.55;;;0.90;;
67146;SDS011;54061;52.036;5.558;2022-08-01T14:20:15;2.78;;;0.90;;
67146;SDS011;54061;52.036;5.558;2022-08-01T14:22:44;5.50;;;0.90;;
67146;SDS011;54061;52.036;5.558;2022-08-01T14:25:13;4.43;;;1.20;;
67146;SDS011;54061;52.036;5.558;2022-08-01T14:27:39;3.13;;;1.08;;
67146;SDS011;54061;52.036;5.558;2022-08-01T14:30:06;4.45;;;1.10;;
67146;SDS011;54061;52.036;5.558;2022-08-01T14:32:33;3.72;;;1.00;;
67146;SDS011;54061;52.036;5.558;2022-08-01T14:34:59;5.47;;;1.25;;
67146;SDS011;54061;52.036;5.558;2022-08-01T14:37:25;4.03;;;1.17;;
67146;SDS011;54061;52.036;5.558;2022-08-01T14:39:51;4.40;;;0.88;;
67146;SDS011;54061;52.036;5.558;2022-08-01T14:42:16;4.60;;;0.93;;
67146;SDS011;54061;52.036;5.558;2022-08-01T14:44:42;4.85;;;1.10;;
67146;SDS011;54061;52.036;5.558;2022-08-01T14:47:07;2.75;;;0.95;;
67146;SDS011;54061;52.036;5.558;2022-08-01T14:49:33;3.42;;;0.82;;
67146;SDS011;54061;52.036;5.558;2022-08-01T14:51:58;3.33;;;1.08;;
67146;SDS011;54061;52.036;5.558;2022-08-01T14:54:24;4.20;;;0.95;;
67146;SDS011;54061;52.036;5.558;2022-08-01T14:56:50;6.85;;;0.85;;
67146;SDS011;54061;52.036;5.558;2022-08-01T14:59:17;4.88;;;1.10;;
67146;SDS011;54061;52.036;5.558;2022-08-01T15:01:43;1.50;;;0.70;;
67146;SDS011;54061;52.036;5.558;2022-08-01T15:04:08;3.25;;;0.90;;
67146;SDS011;54061;52.036;5.558;2022-08-01T15:06:34;2.30;;;0.73;;
67146;SDS011;54061;52.036;5.558;2022-08-01T15:08:59;3.60;;;0.80;;
67146;SDS011;54061;52.036;5.558;2022-08-01T15:11:25;2.92;;;0.80;;
67146;SDS011;54061;52.036;5.558;2022-08-01T15:13:50;2.08;;;0.75;;
67146;SDS011;54061;52.036;5.558;2022-08-01T15:16:36;6.90;;;0.75;;
67146;SDS011;54061;52.036;5.558;2022-08-01T15:19:04;3.58;;;0.77;;
67146;SDS011;54061;52.036;5.558;2022-08-01T15:21:30;3.20;;;0.85;;
67146;SDS011;54061;52.036;5.558;2022-08-01T15:23:55;3.20;;;0.90;;
67146;SDS011;54061;52.036;5.558;2022-08-01T15:26:21;2.85;;;0.98;;
67146;SDS011;54061;52.036;5.558;2022-08-01T15:28:46;6.80;;;1.55;;
67146;SDS011;54061;52.036;5.558;2022-08-01T15:31:12;3.67;;;1.00;;
67146;SDS011;54061;52.036;5.558;2022-08-01T15:33:37;6.55;;;0.90;;
67146;SDS011;54061;52.036;5.558;2022-08-01T15:36:03;4.88;;;1.00;;
67146;SDS011;54061;52.036;5.558;2022-08-01T15:38:29;2.53;;;0.80;;
67146;SDS011;54061;52.036;5.558;2022-08-01T15:40:55;4.78;;;0.70;;
67146;SDS011;54061;52.036;5.558;2022-08-01T15:43:20;2.05;;;0.75;;
67146;SDS011;54061;52.036;5.558;2022-08-01T15:45:46;4.63;;;0.90;;
67146;SDS011;54061;52.036;5.558;2022-08-01T15:48:11;5.90;;;1.27;;
67146;SDS011;54061;52.036;5.558;2022-08-01T15:50:37;5.55;;;0.90;;
67146;SDS011;54061;52.036;5.558;2022-08-01T15:53:03;4.88;;;1.00;;
67146;SDS011;54061;52.036;5.558;2022-08-01T15:55:29;6.70;;;0.85;;
67146;SDS011;54061;52.036;5.558;2022-08-01T15:57:55;6.28;;;0.80;;
67146;SDS011;54061;52.036;5.558;2022-08-01T16:00:20;4.55;;;1.02;;
67146;SDS011;54061;52.036;5.558;2022-08-01T16:02:46;2.50;;;0.93;;
67146;SDS011;54061;52.036;5.558;2022-08-01T16:05:11;3.45;;;0.77;;
67146;SDS011;54061;52.036;5.558;2022-08-01T16:07:37;2.72;;;0.80;;
67146;SDS011;54061;52.036;5.558;2022-08-01T16:10:04;6.57;;;1.05;;
67146;SDS011;54061;52.036;5.558;2022-08-01T16:12:30;5.22;;;0.90;;
67146;SDS011;54061;52.036;5.558;2022-08-01T16:14:56;6.18;;;0.88;;
67146;SDS011;54061;52.036;5.558;2022-08-01T16:17:22;3.88;;;0.77;;
67146;SDS011;54061;52.036;5.558;2022-08-01T16:19:47;1.88;;;0.75;;
67146;SDS011;54061;52.036;5.558;2022-08-01T16:22:14;4.25;;;0.80;;
67146;SDS011;54061;52.036;5.558;2022-08-01T16:24:40;5.28;;;0.98;;
67146;SDS011;54061;52.036;5.558;2022-08-01T16:27:05;1.60;;;0.70;;
67146;SDS011;54061;52.036;5.558;2022-08-01T16:29:31;4.32;;;0.90;;
67146;SDS011;54061;52.036;5.558;2022-08-01T16:31:58;3.30;;;0.80;;
67146;SDS011;54061;52.036;5.558;2022-08-01T16:34:23;4.03;;;0.60;;
67146;SDS011;54061;52.036;5.558;2022-08-01T16:36:49;3.40;;;0.80;;
67146;SDS011;54061;52.036;5.558;2022-08-01T16:39:16;4.35;;;1.00;;
67146;SDS011;54061;52.036;5.558;2022-08-01T16:41:42;3.67;;;0.57;;
67146;SDS011;54061;52.036;5.558;2022-08-01T16:44:07;2.65;;;0.73;;
67146;SDS011;54061;52.036;5.558;2022-08-01T16:46:33;3.75;;;0.90;;
67146;SDS011;54061;52.036;5.558;2022-08-01T16:48:58;4.57;;;0.70;;
67146;SDS011;54061;52.036;5.558;2022-08-01T16:51:24;5.65;;;0.90;;
67146;SDS011;54061;52.036;5.558;2022-08-01T16:53:49;1.48;;;0.60;;
67146;SDS011;54061;52.036;5.558;2022-08-01T16:56:15;3.83;;;0.68;;
67146;SDS011;54061;52.036;5.558;2022-08-01T16:58:40;1.85;;;0.60;;
67146;SDS011;54061;52.036;5.558;2022-08-01T17:01:06;4.07;;;1.00;;
67146;SDS011;54061;52.036;5.558;2022-08-01T17:03:31;4.68;;;1.10;;
67146;SDS011;54061;52.036;5.558;2022-08-01T17:05:57;2.70;;;0.82;;
67146;SDS011;54061;52.036;5.558;2022-08-01T17:08:22;2.45;;;0.90;;
67146;SDS011;54061;52.036;5.558;2022-08-01T17:10:48;8.38;;;1.10;;
67146;SDS011;54061;52.036;5.558;2022-08-01T17:13:13;6.95;;;1.20;;
67146;SDS011;54061;52.036;5.558;2022-08-01T17:15:39;3.63;;;0.95;;
67146;SDS011;54061;52.036;5.558;2022-08-01T17:18:05;4.28;;;1.23;;
67146;SDS011;54061;52.036;5.558;2022-08-01T17:20:30;9.38;;;1.17;;
67146;SDS011;54061;52.036;5.558;2022-08-01T17:22:56;7.22;;;1.00;;
67146;SDS011;54061;52.036;5.558;2022-08-01T17:25:22;7.00;;;1.30;;
67146;SDS011;54061;52.036;5.558;2022-08-01T17:27:48;6.95;;;1.10;;
67146;SDS011;54061;52.036;5.558;2022-08-01T17:30:18;5.55;;;1.10;;
67146;SDS011;54061;52.036;5.558;2022-08-01T17:32:47;3.83;;;0.80;;
67146;SDS011;54061;52.036;5.558;2022-08-01T17:35:15;3.88;;;0.90;;
67146;SDS011;54061;52.036;5.558;2022-08-01T17:37:41;3.83;;;1.00;;
67146;SDS011;54061;52.036;5.558;2022-08-01T17:40:07;7.15;;;0.98;;
67146;SDS011;54061;52.036;5.558;2022-08-01T17:42:33;1.20;;;0.63;;
67146;SDS011;54061;52.036;5.558;2022-08-01T17:44:59;4.35;;;1.35;;
67146;SDS011;54061;52.036;5.558;2022-08-01T17:47:24;3.13;;;0.70;;
67146;SDS011;54061;52.036;5.558;2022-08-01T17:49:50;2.95;;;1.08;;
67146;SDS011;54061;52.036;5.558;2022-08-01T17:52:16;5.43;;;1.15;;
67146;SDS011;54061;52.036;5.558;2022-08-01T17:54:42;1.95;;;0.80;;
67146;SDS011;54061;52.036;5.558;2022-08-01T17:57:08;1.67;;;0.98;;
67146;SDS011;54061;52.036;5.558;2022-08-01T17:59:34;3.80;;;0.85;;
67146;SDS011;54061;52.036;5.558;2022-08-01T18:02:02;7.05;;;1.05;;
67146;SDS011;54061;52.036;5.558;2022-08-01T18:04:28;6.20;;;0.95;;
67146;SDS011;54061;52.036;5.558;2022-08-01T18:06:54;5.05;;;0.85;;
67146;SDS011;54061;52.036;5.558;2022-08-01T18:09:19;5.57;;;1.05;;
67146;SDS011;54061;52.036;5.558;2022-08-01T18:11:45;2.65;;;0.95;;
67146;SDS011;54061;52.036;5.558;2022-08-01T18:14:10;5.28;;;1.15;;
67146;SDS011;54061;52.036;5.558;2022-08-01T18:16:36;4.57;;;0.90;;
67146;SDS011;54061;52.036;5.558;2022-08-01T18:19:01;2.30;;;0.90;;
67146;SDS011;54061;52.036;5.558;2022-08-01T18:21:28;9.45;;;1.08;;
67146;SDS011;54061;52.036;5.558;2022-08-01T18:23:56;3.40;;;1.30;;
67146;SDS011;54061;52.036;5.558;2022-08-01T18:26:21;5.72;;;0.90;;
67146;SDS011;54061;52.036;5.558;2022-08-01T18:28:50;4.82;;;1.00;;
67146;SDS011;54061;52.036;5.558;2022-08-01T18:31:16;6.30;;;1.60;;
67146;SDS011;54061;52.036;5.558;2022-08-01T18:33:46;5.22;;;1.25;;
67146;SDS011;54061;52.036;5.558;2022-08-01T18:36:12;4.25;;;1.30;;
67146;SDS011;54061;52.036;5.558;2022-08-01T18:38:40;3.55;;;1.20;;
67146;SDS011;54061;52.036;5.558;2022-08-01T18:41:05;4.30;;;1.42;;
67146;SDS011;54061;52.036;5.558;2022-08-01T18:43:34;4.35;;;0.93;;
67146;SDS011;54061;52.036;5.558;2022-08-01T18:46:02;7.38;;;1.52;;
67146;SDS011;54061;52.036;5.558;2022-08-01T18:48:30;6.28;;;0.95;;
67146;SDS011;54061;52.036;5.558;2022-08-01T18:50:55;9.57;;;1.13;;
67146;SDS011;54061;52.036;5.558;2022-08-01T18:53:24;5.78;;;1.10;;
67146;SDS011;54061;52.036;5.558;2022-08-01T18:55:50;5.10;;;1.30;;
67146;SDS011;54061;52.036;5.558;2022-08-01T18:58:18;3.75;;;1.00;;
67146;SDS011;54061;52.036;5.558;2022-08-01T19:00:44;2.67;;;0.90;;
67146;SDS011;54061;52.036;5.558;2022-08-01T19:03:10;5.32;;;1.23;;